createdAt,value
2023-01-08T00:02:09.257Z,12.50
2023-01-08T00:05:54.000Z,12.10
2023-01-08T00:09:57.677Z,12.00
2023-01-08T00:14:01.322Z,12.10
2023-01-08T00:17:18.462Z,11.50
2023-01-08T00:20:47.935Z,12.10
2023-01-08T00:24:04.293Z,12.00
2023-01-08T00:27:12.233Z,14.30
2023-01-08T00:30:18.655Z,13.60
2023-01-08T00:34:11.452Z,14.00
2023-01-08T00:37:23.020Z,12.90
2023-01-08T00:40:44.028Z,15.90
2023-01-08T00:44:12.797Z,13.80
2023-01-08T00:48:16.416Z,15.30
2023-01-08T00:51:29.663Z,13.30
2023-01-08T00:54:36.158Z,15.80
2023-01-08T00:57:40.127Z,12.50
2023-01-08T01:00:56.482Z,11.50
2023-01-08T01:04:21.129Z,11.00
2023-01-08T01:07:29.878Z,10.30
2023-01-08T01:14:04.327Z,9.00
2023-01-08T01:17:12.026Z,7.50
2023-01-08T01:21:05.580Z,7.60
2023-01-08T01:24:59.089Z,6.90
2023-01-08T01:28:38.221Z,8.30
2023-01-08T01:32:31.672Z,6.60
2023-01-08T01:35:58.845Z,7.30
2023-01-08T01:39:30.579Z,8.10
2023-01-08T01:43:34.191Z,8.20
2023-01-08T01:47:02.057Z,8.00
2023-01-08T01:50:59.957Z,7.40
2023-01-08T01:55:03.704Z,7.20
2023-01-08T01:58:23.842Z,6.70
2023-01-08T02:01:31.599Z,8.50
2023-01-08T02:04:37.610Z,8.50
2023-01-08T02:08:14.652Z,7.60
2023-01-08T02:11:30.135Z,8.00
2023-01-08T02:15:01.703Z,9.10
2023-01-08T02:18:12.696Z,9.00
2023-01-08T02:22:04.902Z,8.60
2023-01-08T02:25:47.134Z,7.90
2023-01-08T02:29:02.921Z,8.00
2023-01-08T02:32:46.604Z,9.00
2023-01-08T02:36:10.661Z,10.10
2023-01-08T02:39:35.391Z,10.00
2023-01-08T02:42:53.762Z,9.40
2023-01-08T02:46:38.071Z,10.10
2023-01-08T02:50:23.519Z,10.50
2023-01-08T02:53:47.784Z,10.80
2023-01-08T02:57:10.107Z,10.20
2023-01-08T03:00:36.396Z,10.70
2023-01-08T03:03:49.742Z,10.30
2023-01-08T03:07:09.105Z,11.20
2023-01-08T03:10:18.182Z,11.10
2023-01-08T03:13:46.288Z,11.10
2023-01-08T03:17:24.582Z,9.90
2023-01-08T03:20:34.125Z,10.30
2023-01-08T03:23:47.036Z,10.90
2023-01-08T03:27:14.392Z,11.20
2023-01-08T03:30:36.945Z,9.70
2023-01-08T03:34:11.569Z,8.90
2023-01-08T03:37:56.314Z,9.90
2023-01-08T03:41:31.268Z,10.00
2023-01-08T03:45:26.310Z,8.40
2023-01-08T03:48:50.079Z,8.30
2023-01-08T03:52:26.648Z,9.70
2023-01-08T03:56:10.273Z,8.70
2023-01-08T03:59:43.457Z,8.60
2023-01-08T04:03:06.793Z,8.30
2023-01-08T04:06:12.927Z,8.20
2023-01-08T04:09:56.457Z,10.40
2023-01-08T04:13:18.487Z,9.80
2023-01-08T04:16:25.211Z,9.30
2023-01-08T04:20:18.640Z,8.70
2023-01-08T04:23:44.768Z,9.10
2023-01-08T04:27:18.969Z,9.30
2023-01-08T04:30:31.102Z,8.60
2023-01-08T04:33:57.173Z,7.80
2023-01-08T04:37:40.500Z,8.70
2023-01-08T04:41:35.150Z,9.10
2023-01-08T04:45:28.543Z,8.80
2023-01-08T04:49:04.896Z,8.10
2023-01-08T04:52:38.159Z,7.40
2023-01-08T04:56:24.401Z,8.30
2023-01-08T05:00:09.483Z,8.50
2023-01-08T05:03:32.744Z,7.80
2023-01-08T05:07:07.951Z,8.80
2023-01-08T05:10:45.861Z,9.10
2023-01-08T05:14:13.188Z,8.10
2023-01-08T05:18:07.836Z,7.50
2023-01-08T05:22:01.239Z,8.40
2023-01-08T05:25:47.426Z,8.50
2023-01-08T05:29:29.466Z,8.20
2023-01-08T05:33:08.284Z,8.60
2023-01-08T05:37:12.131Z,7.60
2023-01-08T05:41:15.706Z,8.20
2023-01-08T05:44:41.269Z,8.00
2023-01-08T05:48:18.480Z,7.40
2023-01-08T05:51:52.742Z,7.60
2023-01-08T05:55:09.105Z,7.70
2023-01-08T05:58:26.188Z,8.10
2023-01-08T06:02:12.315Z,6.60
2023-01-08T06:05:36.079Z,6.40
2023-01-08T06:08:53.540Z,7.90
2023-01-08T06:12:17.999Z,7.00
2023-01-08T06:16:01.566Z,7.00
2023-01-08T06:19:33.888Z,7.50
2023-01-08T06:23:27.322Z,7.90
2023-01-08T06:26:32.777Z,7.60
2023-01-08T06:29:41.317Z,7.20
2023-01-08T06:33:24.748Z,7.70
2023-01-08T06:36:51.585Z,8.30
2023-01-08T06:40:54.845Z,7.80
2023-01-08T06:44:32.808Z,7.00
2023-01-08T06:48:16.192Z,6.60
2023-01-08T06:52:02.619Z,7.80
2023-01-08T06:55:38.357Z,7.10
2023-01-08T06:59:20.874Z,7.30
2023-01-08T07:02:54.782Z,7.70
2023-01-08T07:06:47.893Z,8.20
2023-01-08T07:10:26.592Z,7.80
2023-01-08T07:14:03.153Z,7.20
2023-01-08T07:17:55.430Z,8.40
2023-01-08T07:21:11.983Z,8.40
2023-01-08T07:25:08.080Z,7.70
2023-01-08T07:28:44.522Z,7.50
2023-01-08T07:32:37.060Z,7.10
2023-01-08T07:36:40.653Z,7.30
2023-01-08T07:40:17.375Z,7.00
2023-01-08T07:43:39.160Z,7.10
2023-01-08T07:47:01.999Z,7.10
2023-01-08T07:50:45.720Z,7.80
2023-01-08T07:54:46.796Z,6.90
2023-01-08T07:58:26.614Z,7.30
2023-01-08T08:02:05.252Z,7.10
2023-01-08T08:06:14.632Z,8.20
2023-01-08T08:10:26.554Z,8.30
2023-01-08T08:14:10.389Z,6.50
2023-01-08T08:18:14.021Z,7.70
2023-01-08T08:22:10.523Z,7.90
2023-01-08T08:26:12.655Z,7.80
2023-01-08T08:29:35.864Z,6.80
2023-01-08T08:33:11.917Z,7.00
2023-01-08T08:36:55.425Z,7.70
2023-01-08T08:40:23.059Z,6.60
2023-01-08T08:43:31.909Z,6.80
2023-01-08T08:47:18.451Z,7.50
2023-01-08T08:51:02.519Z,7.60
2023-01-08T08:55:06.153Z,7.10
2023-01-08T08:59:02.211Z,6.60
2023-01-08T09:02:55.826Z,7.10
2023-01-08T09:06:59.632Z,6.80
2023-01-08T09:10:46.672Z,7.10
2023-01-08T09:14:39.241Z,7.00
2023-01-08T09:18:16.105Z,7.70
2023-01-08T09:22:19.872Z,6.70
2023-01-08T09:26:23.459Z,6.80
2023-01-08T09:30:17.120Z,6.10
2023-01-08T09:33:43.225Z,7.20
2023-01-08T09:37:26.734Z,7.40
2023-01-08T09:41:26.492Z,6.60
2023-01-08T09:45:30.141Z,6.10
2023-01-08T09:49:33.828Z,6.60
2023-01-08T09:53:37.472Z,7.80
2023-01-08T09:57:33.740Z,6.50
2023-01-08T10:01:37.461Z,5.90
2023-01-08T10:05:41.193Z,6.30
2023-01-08T10:09:34.941Z,6.70
2023-01-08T10:13:19.104Z,5.80
2023-01-08T10:17:11.540Z,5.90
2023-01-08T10:21:19.884Z,5.90
2023-01-08T10:25:35.581Z,6.40
2023-01-08T10:29:54.140Z,5.80
2023-01-08T10:33:57.860Z,6.20
2023-01-08T10:38:07.512Z,6.40
2023-01-08T10:42:42.124Z,7.60
2023-01-08T10:46:35.315Z,7.70
2023-01-08T10:50:38.940Z,8.40
2023-01-08T10:54:42.661Z,8.60
2023-01-08T10:58:49.410Z,8.00
2023-01-08T11:02:43.402Z,7.40
2023-01-08T11:06:53.017Z,7.10
2023-01-08T11:11:09.181Z,6.60
2023-01-08T11:15:19.333Z,7.40
2023-01-08T11:19:16.040Z,7.00
2023-01-08T11:23:06.878Z,6.20
2023-01-08T11:27:16.731Z,7.00
2023-01-08T11:31:08.978Z,7.80
2023-01-08T11:34:48.996Z,6.80
2023-01-08T11:38:52.584Z,6.60
2023-01-08T11:43:20.663Z,5.70
2023-01-08T11:47:33.008Z,6.70
2023-01-08T11:51:52.172Z,6.00
2023-01-08T11:55:58.430Z,5.50
2023-01-08T12:00:14.561Z,6.30
2023-01-08T12:04:16.727Z,7.20
2023-01-08T12:08:24.490Z,6.30
2023-01-08T12:12:22.018Z,5.60
2023-01-08T12:16:03.163Z,6.00
2023-01-08T12:19:58.687Z,6.60
2023-01-08T12:23:54.863Z,6.10
2023-01-08T12:27:18.162Z,5.30
2023-01-08T12:31:37.444Z,6.90
2023-01-08T12:35:59.576Z,6.50
2023-01-08T12:40:09.877Z,5.70
2023-01-08T12:44:03.463Z,5.30
2023-01-08T12:47:36.652Z,5.40
2023-01-08T12:51:18.041Z,7.20
2023-01-08T12:55:11.655Z,5.80
2023-01-08T12:58:51.604Z,5.60
2023-01-08T13:02:52.894Z,5.70
2023-01-08T13:06:56.683Z,5.60
2023-01-08T13:15:22.435Z,4.70
2023-01-08T13:19:08.827Z,5.80
2023-01-08T13:23:24.554Z,6.10
2023-01-08T13:27:21.105Z,5.50
2023-01-08T13:31:27.206Z,5.80
2023-01-08T13:35:49.273Z,6.40
2023-01-08T13:39:33.567Z,6.80
2023-01-08T13:43:18.384Z,6.30
2023-01-08T13:47:04.774Z,6.50
2023-01-08T13:50:50.900Z,6.60
2023-01-08T13:54:54.538Z,7.70
2023-01-08T13:59:01.215Z,6.10
2023-01-08T14:02:55.391Z,6.10
2023-01-08T14:07:41.922Z,7.60
2023-01-08T14:10:48.082Z,6.40
2023-01-08T14:14:25.347Z,6.50
2023-01-08T14:18:17.803Z,7.40
2023-01-08T14:22:07.305Z,6.80
2023-01-08T14:25:40.099Z,6.00
2023-01-08T14:29:36.741Z,7.70
2023-01-08T14:32:54.442Z,7.00
2023-01-08T14:36:54.188Z,7.30
2023-01-08T14:40:57.783Z,7.70
2023-01-08T14:44:40.428Z,7.30
2023-01-08T14:48:36.288Z,7.00
2023-01-08T14:52:28.877Z,6.60
2023-01-08T14:56:22.452Z,7.50
2023-01-08T14:59:53.320Z,8.00
2023-01-08T15:03:46.851Z,7.60
2023-01-08T15:07:12.445Z,7.30
2023-01-08T15:11:19.344Z,8.20
2023-01-08T15:15:34.197Z,8.30
2023-01-08T15:19:20.794Z,7.70
2023-01-08T15:23:05.233Z,7.90
2023-01-08T15:27:07.407Z,9.90
2023-01-08T15:31:34.922Z,10.20
2023-01-08T15:39:53.518Z,8.30
2023-01-08T15:43:58.249Z,8.90
2023-01-08T15:48:01.433Z,8.30
2023-01-08T17:41:16.250Z,9.60
2023-01-08T17:45:23.523Z,9.70
2023-01-08T17:49:17.153Z,7.90
2023-01-08T17:53:20.801Z,8.30
2023-01-08T17:57:06.986Z,9.40
2023-01-08T18:01:11.022Z,8.30
2023-01-08T18:05:33.572Z,8.10
2023-01-08T18:09:37.215Z,8.40
2023-01-08T18:13:40.863Z,8.00
2023-01-08T18:17:45.641Z,7.60
2023-01-08T18:21:49.409Z,8.20
2023-01-08T18:25:07.480Z,8.50
2023-01-08T18:29:11.183Z,7.30
2023-01-08T18:32:57.534Z,7.20
2023-01-08T18:37:03.564Z,6.20
2023-01-08T18:40:59.861Z,8.10
2023-01-08T18:45:03.643Z,7.80
2023-01-08T18:49:07.427Z,6.70
2023-01-08T18:53:11.100Z,7.40
2023-01-08T19:01:44.547Z,6.70
2023-01-08T19:05:51.580Z,7.20
2023-01-08T19:09:14.958Z,7.50
2023-01-08T19:12:58.443Z,7.50
2023-01-08T19:17:05.253Z,6.90
2023-01-08T19:21:09.698Z,7.80
2023-01-08T19:25:13.337Z,8.40
2023-01-08T19:29:00.903Z,7.10
2023-01-08T19:33:06.890Z,8.70
2023-01-08T19:37:09.447Z,8.40
2023-01-08T19:41:13.268Z,8.30
2023-01-08T19:45:15.682Z,8.00
2023-01-08T19:49:09.378Z,7.80
2023-01-08T19:53:14.577Z,8.10
2023-01-08T19:57:17.372Z,9.50
2023-01-08T20:01:19.737Z,8.60
2023-01-08T20:05:24.664Z,7.30
2023-01-08T20:09:28.432Z,8.80
2023-01-08T20:13:33.162Z,9.80
2023-01-08T20:17:15.762Z,8.70
2023-01-08T20:21:19.392Z,9.70
2023-01-08T20:25:24.063Z,8.90
2023-01-08T20:29:18.129Z,9.20
2023-01-08T20:33:22.107Z,7.10
2023-01-08T20:37:26.789Z,7.40
2023-01-08T20:41:30.533Z,9.00
2023-01-08T20:45:31.601Z,9.40
2023-01-08T20:49:35.213Z,8.60
2023-01-08T20:53:38.926Z,6.90
2023-01-08T20:57:42.733Z,7.50
2023-01-08T21:01:36.687Z,10.60
2023-01-08T21:05:40.522Z,8.50
2023-01-08T21:09:44.640Z,8.30
2023-01-08T21:13:49.047Z,7.10
2023-01-08T21:17:42.495Z,7.90
2023-01-08T21:21:46.512Z,8.30
2023-01-08T21:25:53.879Z,7.20
2023-01-08T21:29:57.513Z,7.80
2023-01-08T21:34:01.520Z,8.70
2023-01-08T21:38:06.379Z,7.70
2023-01-08T21:42:08.466Z,6.80
2023-01-08T21:46:12.284Z,7.90
2023-01-08T21:50:08.855Z,8.40
2023-01-08T21:54:50.794Z,7.70
2023-01-08T21:58:40.744Z,6.20
2023-01-08T22:02:44.608Z,7.80
2023-01-08T22:06:47.596Z,8.50
2023-01-08T22:10:32.514Z,7.00
2023-01-08T22:14:38.360Z,6.40
2023-01-08T22:18:31.843Z,6.60
2023-01-08T22:22:10.753Z,6.80
2023-01-08T22:26:06.333Z,6.70
2023-01-08T22:29:49.595Z,6.30
2023-01-08T22:33:53.316Z,7.10
2023-01-08T22:37:47.301Z,6.70
2023-01-08T22:41:42.027Z,6.70
2023-01-08T22:45:37.026Z,6.50
2023-01-08T22:49:40.864Z,6.70
2023-01-08T22:53:18.373Z,7.60
2023-01-08T22:57:21.591Z,7.00
2023-01-08T23:01:28.236Z,6.70
2023-01-08T23:05:31.907Z,7.00
2023-01-08T23:09:34.188Z,7.00
2023-01-08T23:13:37.936Z,6.60
2023-01-08T23:17:52.561Z,7.50
2023-01-08T23:22:02.266Z,6.80
2023-01-08T23:26:05.964Z,7.30
2023-01-08T23:30:08.316Z,6.60
2023-01-08T23:34:12.078Z,7.00
2023-01-08T23:38:06.105Z,7.20
2023-01-08T23:41:39.463Z,7.10
2023-01-08T23:45:42.250Z,5.60
2023-01-08T23:50:00.942Z,6.00
2023-01-08T23:54:03.350Z,6.40
